createdAt,value
2022-11-16T00:00:43.499Z,77.73
2022-11-16T00:03:14.744Z,77.01
2022-11-16T00:05:45.382Z,75.77
2022-11-16T00:08:15.682Z,75.95
2022-11-16T00:10:46.530Z,76.35
2022-11-16T00:13:17.225Z,76.04
2022-11-16T00:15:57.581Z,76.31
2022-11-16T00:18:28.426Z,75.72
2022-11-16T00:20:59.412Z,75.45
2022-11-16T00:23:31.675Z,74.72
2022-11-16T00:26:08.612Z,74.26
2022-11-16T00:28:40.195Z,73.36
2022-11-16T00:31:11.931Z,73.01
2022-11-16T00:33:43.071Z,72.08
2022-11-16T00:36:15.506Z,71.56
2022-11-16T00:38:47.073Z,70.72
2022-11-16T00:41:20.669Z,70.54
2022-11-16T00:43:52.580Z,69.06
2022-11-16T00:46:24.065Z,68.90
2022-11-16T00:48:55.562Z,68.61
2022-11-16T00:51:26.511Z,68.20
2022-11-16T00:53:57.620Z,67.49
2022-11-16T00:56:29.642Z,67.08
2022-11-16T00:59:01.156Z,66.78
2022-11-16T01:01:35.024Z,67.29
2022-11-16T01:04:09.718Z,68.24
2022-11-16T01:06:41.151Z,67.45
2022-11-16T01:09:12.262Z,67.67
2022-11-16T01:12:01.292Z,66.71
2022-11-16T01:14:33.381Z,67.07
2022-11-16T01:17:05.888Z,66.68
2022-11-16T01:19:38.005Z,66.39
2022-11-16T01:22:12.038Z,66.49
2022-11-16T01:24:42.781Z,66.05
2022-11-16T01:27:15.012Z,65.62
2022-11-16T01:29:48.684Z,64.85
2022-11-16T01:32:21.455Z,64.54
2022-11-16T01:34:53.030Z,64.18
2022-11-16T01:37:31.655Z,63.96
2022-11-16T01:40:02.513Z,64.09
2022-11-16T01:42:34.764Z,64.02
2022-11-16T01:45:25.910Z,63.80
2022-11-16T01:48:00.307Z,62.82
2022-11-16T01:50:35.204Z,63.00
2022-11-16T01:53:07.651Z,63.28
2022-11-16T01:55:51.721Z,63.05
2022-11-16T01:58:31.634Z,63.21
2022-11-16T02:01:12.610Z,63.81
2022-11-16T02:03:50.012Z,63.98
2022-11-16T02:06:29.460Z,64.05
2022-11-16T02:09:59.105Z,63.39
2022-11-16T02:13:00.006Z,62.92
2022-11-16T02:15:46.668Z,62.24
2022-11-16T02:18:37.081Z,60.72
2022-11-16T02:21:14.288Z,60.68
2022-11-16T02:24:03.812Z,60.42
2022-11-16T02:26:52.635Z,60.77
2022-11-16T02:29:41.535Z,60.68
2022-11-16T02:32:15.235Z,60.17
2022-11-16T02:35:24.807Z,60.88
2022-11-16T02:38:09.849Z,60.22
2022-11-16T02:40:42.539Z,61.00
2022-11-16T02:43:18.753Z,61.99
2022-11-16T02:45:52.560Z,62.66
2022-11-16T02:48:26.997Z,63.09
2022-11-16T02:51:00.744Z,63.25
2022-11-16T02:53:35.824Z,62.99
2022-11-16T02:56:07.786Z,63.10
2022-11-16T02:58:38.463Z,62.93
2022-11-16T03:01:20.045Z,63.49
2022-11-16T03:03:52.360Z,63.08
2022-11-16T03:06:30.505Z,64.27
2022-11-16T03:09:25.012Z,63.75
2022-11-16T03:12:02.134Z,63.67
2022-11-16T03:14:54.061Z,63.81
2022-11-16T03:17:46.678Z,63.37
2022-11-16T03:20:23.805Z,63.59
2022-11-16T03:23:00.517Z,62.80
2022-11-16T03:25:56.386Z,62.87
2022-11-16T03:29:00.630Z,62.60
2022-11-16T03:31:45.424Z,62.82
2022-11-16T03:34:21.314Z,62.45
2022-11-16T03:36:53.122Z,62.08
2022-11-16T03:39:32.473Z,61.92
2022-11-16T03:42:08.072Z,62.75
2022-11-16T03:44:40.089Z,61.97
2022-11-16T03:47:14.191Z,61.97
2022-11-16T03:49:48.685Z,62.11
2022-11-16T03:52:21.656Z,61.71
2022-11-16T03:54:54.029Z,62.15
2022-11-16T03:57:25.528Z,61.73
2022-11-16T03:59:59.905Z,61.93
2022-11-16T04:02:33.816Z,61.32
2022-11-16T04:05:23.063Z,61.02
2022-11-16T04:08:17.462Z,60.34
2022-11-16T04:11:07.034Z,60.22
2022-11-16T04:13:55.898Z,60.00
2022-11-16T04:16:44.763Z,59.71
2022-11-16T04:19:33.620Z,58.97
2022-11-16T04:22:44.596Z,58.52
2022-11-16T04:25:23.331Z,57.47
2022-11-16T04:28:13.600Z,57.00
2022-11-16T04:31:12.537Z,54.99
2022-11-16T04:34:05.235Z,53.91
2022-11-16T04:36:54.026Z,53.25
2022-11-16T04:39:24.836Z,52.76
2022-11-16T04:42:14.411Z,52.16
2022-11-16T04:45:25.658Z,51.91
2022-11-16T04:47:57.113Z,53.85
2022-11-16T04:50:32.985Z,53.73
2022-11-16T04:53:04.869Z,54.43
2022-11-16T04:55:41.013Z,54.26
2022-11-16T04:58:11.581Z,54.28
2022-11-16T05:00:43.290Z,53.74
2022-11-16T05:03:14.715Z,53.65
2022-11-16T05:05:47.413Z,53.28
2022-11-16T05:08:19.694Z,52.70
2022-11-16T05:10:53.501Z,52.54
2022-11-16T05:13:25.056Z,51.71
2022-11-16T05:15:56.926Z,50.74
2022-11-16T05:18:32.181Z,51.04
2022-11-16T05:21:05.551Z,50.62
2022-11-16T05:23:58.994Z,50.96
2022-11-16T05:26:33.189Z,51.00
2022-11-16T05:29:05.372Z,50.63
2022-11-16T05:31:40.278Z,49.93
2022-11-16T05:34:12.175Z,49.70
2022-11-16T05:36:42.994Z,49.27
2022-11-16T05:39:14.688Z,49.55
2022-11-16T05:41:46.495Z,49.53
2022-11-16T05:44:18.181Z,48.43
2022-11-16T05:46:49.531Z,48.75
2022-11-16T05:49:22.595Z,48.83
2022-11-16T05:51:53.324Z,48.61
2022-11-16T05:54:27.234Z,48.89
2022-11-16T05:56:58.725Z,48.77
2022-11-16T05:59:30.964Z,48.36
2022-11-16T06:02:05.741Z,47.97
2022-11-16T06:04:37.915Z,47.55
2022-11-16T06:07:08.212Z,47.26
2022-11-16T06:09:39.708Z,46.75
2022-11-16T06:12:18.708Z,46.58
2022-11-16T06:14:49.854Z,46.16
2022-11-16T06:17:20.552Z,45.35
2022-11-16T06:19:51.357Z,45.07
2022-11-16T06:22:22.322Z,45.30
2022-11-16T06:24:53.589Z,44.30
2022-11-16T06:27:27.506Z,44.11
2022-11-16T06:29:58.550Z,44.59
2022-11-16T06:32:32.935Z,44.79
2022-11-16T06:35:03.822Z,44.25
2022-11-16T06:37:34.977Z,44.45
2022-11-16T06:40:07.455Z,44.86
2022-11-16T06:42:43.069Z,44.96
2022-11-16T06:45:17.163Z,45.12
2022-11-16T06:47:55.148Z,45.89
2022-11-16T06:50:27.288Z,46.11
2022-11-16T06:53:01.794Z,45.79
2022-11-16T06:55:34.276Z,45.91
2022-11-16T06:58:07.360Z,45.85
2022-11-16T07:00:39.640Z,46.13
2022-11-16T07:03:12.469Z,46.27
2022-11-16T07:05:43.881Z,45.97
2022-11-16T07:08:19.213Z,46.60
2022-11-16T07:10:51.460Z,46.51
2022-11-16T07:13:22.648Z,46.25
2022-11-16T07:15:54.714Z,46.27
2022-11-16T07:18:26.069Z,46.13
2022-11-16T07:20:57.876Z,47.16
2022-11-16T07:23:29.828Z,46.90
2022-11-16T07:26:06.649Z,46.46
2022-11-16T07:28:49.252Z,47.05
2022-11-16T07:31:24.612Z,48.26
2022-11-16T07:34:15.175Z,49.38
2022-11-16T07:37:08.153Z,49.71
2022-11-16T07:39:38.993Z,50.43
2022-11-16T07:42:13.197Z,50.41
2022-11-16T07:45:01.636Z,50.32
2022-11-16T07:47:39.101Z,49.58
2022-11-16T07:50:13.456Z,49.38
2022-11-16T07:52:47.551Z,48.20
2022-11-16T07:55:27.401Z,48.69
2022-11-16T07:57:59.633Z,48.54
2022-11-16T08:00:30.303Z,48.08
2022-11-16T08:03:10.263Z,48.28
2022-11-16T08:05:41.940Z,50.24
2022-11-16T08:08:13.832Z,51.09
2022-11-16T08:10:46.899Z,51.71
2022-11-16T08:13:18.187Z,51.73
2022-11-16T08:15:48.919Z,52.09
2022-11-16T08:18:23.112Z,51.68
2022-11-16T08:20:53.544Z,51.23
2022-11-16T08:23:25.519Z,50.93
2022-11-16T08:26:04.479Z,51.02
2022-11-16T08:28:35.877Z,50.17
2022-11-16T08:31:14.948Z,50.27
2022-11-16T08:33:50.016Z,49.56
2022-11-16T08:36:21.458Z,49.28
2022-11-16T08:38:53.527Z,49.05
2022-11-16T08:41:26.400Z,50.27
2022-11-16T08:43:58.011Z,51.19
2022-11-16T08:46:29.562Z,50.92
2022-11-16T08:49:10.199Z,51.59
2022-11-16T08:51:41.819Z,51.80
2022-11-16T08:54:12.653Z,52.52
2022-11-16T08:56:45.172Z,52.60
2022-11-16T08:59:16.658Z,53.13
2022-11-16T09:01:51.660Z,53.57
2022-11-16T09:04:22.662Z,53.16
2022-11-16T09:06:54.098Z,53.45
2022-11-16T09:09:24.787Z,53.80
2022-11-16T09:11:58.743Z,54.32
2022-11-16T09:14:31.592Z,54.16
2022-11-16T09:17:02.131Z,54.24
2022-11-16T09:19:32.414Z,54.12
2022-11-16T09:22:03.363Z,53.65
2022-11-16T09:24:34.062Z,54.01
2022-11-16T09:27:04.848Z,54.36
2022-11-16T09:29:35.750Z,54.80
2022-11-16T09:32:07.367Z,54.73
2022-11-16T09:34:38.219Z,54.82
2022-11-16T09:37:09.164Z,54.96
2022-11-16T09:39:39.695Z,55.12
2022-11-16T09:42:43.601Z,55.72
2022-11-16T09:45:19.101Z,55.72
2022-11-16T09:47:58.434Z,55.65
2022-11-16T09:50:37.922Z,55.93
2022-11-16T09:53:32.429Z,56.04
2022-11-16T09:56:26.412Z,56.32
2022-11-16T09:59:06.165Z,56.32
2022-11-16T10:02:03.023Z,56.60
2022-11-16T10:04:44.969Z,56.79
2022-11-16T10:07:27.799Z,56.78
2022-11-16T10:09:58.893Z,57.03
2022-11-16T10:12:37.017Z,57.33
2022-11-16T10:15:10.709Z,57.41
2022-11-16T10:17:47.091Z,57.42
2022-11-16T10:20:50.751Z,57.81
2022-11-16T10:23:37.887Z,57.74
2022-11-16T10:26:20.467Z,57.59
2022-11-16T10:29:02.817Z,57.69
2022-11-16T10:31:39.419Z,57.68
2022-11-16T10:34:10.966Z,57.57
2022-11-16T10:36:41.287Z,57.70
2022-11-16T10:39:17.950Z,57.57
2022-11-16T10:41:54.142Z,57.40
2022-11-16T10:44:42.956Z,57.60
2022-11-16T10:47:27.115Z,57.56
2022-11-16T10:50:08.192Z,57.54
2022-11-16T10:52:38.749Z,57.55
2022-11-16T10:55:09.883Z,57.74
2022-11-16T10:58:16.055Z,57.81
2022-11-16T11:00:52.570Z,57.97
2022-11-16T11:03:33.729Z,57.79
2022-11-16T11:06:04.307Z,57.46
2022-11-16T11:08:35.050Z,57.79
2022-11-16T11:11:25.505Z,58.01
2022-11-16T11:14:11.614Z,57.70
2022-11-16T11:16:42.740Z,57.44
2022-11-16T11:19:39.277Z,57.88
2022-11-16T11:22:15.724Z,58.00
2022-11-16T11:24:50.303Z,57.69
2022-11-16T11:27:26.354Z,58.13
2022-11-16T11:29:59.651Z,57.84
2022-11-16T11:32:36.735Z,57.44
2022-11-16T11:35:08.116Z,57.51
2022-11-16T11:37:40.705Z,57.79
2022-11-16T11:40:11.469Z,57.68
2022-11-16T11:42:43.950Z,58.11
2022-11-16T11:45:14.846Z,57.83
2022-11-16T11:47:58.434Z,58.19
2022-11-16T11:50:41.099Z,58.02
2022-11-16T11:53:44.746Z,58.20
2022-11-16T11:56:15.872Z,58.24
2022-11-16T11:58:47.732Z,58.35
2022-11-16T12:01:42.691Z,58.42
2022-11-16T12:04:31.759Z,58.19
2022-11-16T12:07:10.996Z,57.94
2022-11-16T12:09:51.089Z,58.09
2022-11-16T12:12:47.751Z,58.38
2022-11-16T12:15:43.150Z,58.11
2022-11-16T12:18:32.010Z,58.02
2022-11-16T12:21:31.539Z,57.83
2022-11-16T12:24:40.087Z,57.48
2022-11-16T12:27:37.120Z,58.11
2022-11-16T12:30:20.927Z,58.08
2022-11-16T12:33:33.246Z,57.92
2022-11-16T12:36:16.094Z,57.64
2022-11-16T12:39:04.489Z,57.44
2022-11-16T12:41:52.096Z,57.71
2022-11-16T12:44:47.055Z,57.72
2022-11-16T12:47:35.539Z,57.50
2022-11-16T12:50:42.258Z,57.60
2022-11-16T12:53:24.744Z,57.39
2022-11-16T12:56:25.545Z,57.80
2022-11-16T12:59:18.764Z,57.55
2022-11-16T13:01:48.944Z,57.94
2022-11-16T13:04:23.396Z,57.68
2022-11-16T13:06:58.902Z,57.53
2022-11-16T13:09:33.697Z,57.72
2022-11-16T13:12:07.775Z,57.64
2022-11-16T13:14:49.866Z,57.13
2022-11-16T13:17:35.784Z,57.06
2022-11-16T13:20:34.786Z,57.28
2022-11-16T13:23:48.109Z,57.47
2022-11-16T13:26:26.219Z,57.92
2022-11-16T13:29:16.095Z,57.73
2022-11-16T13:31:58.923Z,57.43
2022-11-16T13:34:34.092Z,57.87
2022-11-16T13:37:40.661Z,57.66
2022-11-16T13:40:25.249Z,57.66
2022-11-16T13:43:14.367Z,57.73
2022-11-16T13:45:51.286Z,57.90
2022-11-16T13:48:22.882Z,57.82
2022-11-16T13:50:58.563Z,57.94
2022-11-16T13:54:38.046Z,58.11
2022-11-16T13:56:29.011Z,58.13
2022-11-16T13:59:00.096Z,57.99
2022-11-16T14:02:22.716Z,58.69
2022-11-16T14:05:20.741Z,59.04
2022-11-16T14:07:56.059Z,58.79
2022-11-16T14:10:52.459Z,59.34
2022-11-16T14:13:48.240Z,59.25
2022-11-16T14:16:22.424Z,59.22
2022-11-16T14:18:58.084Z,59.05
2022-11-16T14:21:50.370Z,58.86
2022-11-16T14:24:35.094Z,59.28
2022-11-16T14:27:17.038Z,59.32
2022-11-16T14:29:57.258Z,59.21
2022-11-16T14:32:42.453Z,59.46
2022-11-16T14:35:40.528Z,59.56
2022-11-16T14:38:31.546Z,59.02
2022-11-16T14:41:04.981Z,59.83
2022-11-16T14:43:48.964Z,59.77
2022-11-16T14:46:24.940Z,59.61
2022-11-16T14:49:00.889Z,59.02
2022-11-16T14:51:34.500Z,59.43
2022-11-16T14:54:12.831Z,59.71
2022-11-16T14:57:04.021Z,59.96
2022-11-16T14:59:34.890Z,60.25
2022-11-16T15:02:28.649Z,60.95
2022-11-16T15:04:59.239Z,60.83
2022-11-16T15:07:31.048Z,61.12
2022-11-16T15:10:02.410Z,62.02
2022-11-16T15:12:44.090Z,62.51
2022-11-16T15:15:17.931Z,63.39
2022-11-16T15:18:08.461Z,64.01
2022-11-16T15:20:45.640Z,64.19
2022-11-16T15:23:17.258Z,65.51
2022-11-16T15:25:56.965Z,65.38
2022-11-16T15:28:30.251Z,65.64
2022-11-16T15:31:02.901Z,66.23
2022-11-16T15:33:43.279Z,66.94
2022-11-16T15:36:50.072Z,66.55
2022-11-16T15:39:26.413Z,66.59
2022-11-16T15:42:03.273Z,66.90
2022-11-16T15:44:34.813Z,67.65
2022-11-16T15:47:06.021Z,67.93
2022-11-16T15:49:40.367Z,67.86
2022-11-16T15:52:12.143Z,67.84
2022-11-16T15:55:01.632Z,68.25
2022-11-16T15:57:32.790Z,68.97
2022-11-16T16:00:04.408Z,69.28
2022-11-16T16:02:35.183Z,69.75
2022-11-16T16:05:07.048Z,70.01
2022-11-16T16:07:40.635Z,70.56
2022-11-16T16:10:20.536Z,70.53
2022-11-16T16:13:03.676Z,70.67
2022-11-16T16:15:37.494Z,70.28
2022-11-16T16:18:37.145Z,70.59
2022-11-16T16:21:07.850Z,70.93
2022-11-16T16:23:54.670Z,70.79
2022-11-16T16:26:25.560Z,70.87
2022-11-16T16:28:56.918Z,71.43
2022-11-16T16:31:30.776Z,71.21
2022-11-16T16:34:12.481Z,71.44
2022-11-16T16:36:44.661Z,71.30
2022-11-16T16:39:15.491Z,71.19
2022-11-16T16:41:45.977Z,71.18
2022-11-16T16:44:17.373Z,71.25
2022-11-16T16:46:48.063Z,71.34
2022-11-16T16:49:18.672Z,71.58
2022-11-16T16:51:48.897Z,71.36
2022-11-16T16:54:19.292Z,71.55
2022-11-16T16:56:49.693Z,72.12
2022-11-16T16:59:20.805Z,71.46
2022-11-16T17:01:52.682Z,71.70
2022-11-16T17:04:22.937Z,71.14
2022-11-16T17:06:54.573Z,70.95
2022-11-16T17:09:26.281Z,71.42
2022-11-16T17:11:56.955Z,71.35
2022-11-16T17:14:27.541Z,72.37
2022-11-16T17:16:59.650Z,71.54
2022-11-16T17:19:30.891Z,71.37
2022-11-16T17:22:01.955Z,71.88
2022-11-16T17:24:32.430Z,71.89
2022-11-16T17:27:03.079Z,71.41
2022-11-16T17:29:34.817Z,71.55
2022-11-16T17:32:09.607Z,71.68
2022-11-16T17:34:48.805Z,71.90
2022-11-16T17:37:28.591Z,71.25
2022-11-16T17:40:00.815Z,70.92
2022-11-16T17:42:39.175Z,71.81
2022-11-16T17:45:39.956Z,71.68
2022-11-16T17:48:38.201Z,71.42
2022-11-16T17:51:14.958Z,72.52
2022-11-16T17:54:01.493Z,72.56
2022-11-16T17:56:47.706Z,72.35
2022-11-16T17:59:31.451Z,72.48
2022-11-16T18:02:04.153Z,72.89
2022-11-16T18:04:48.233Z,73.31
2022-11-16T18:07:29.354Z,73.05
2022-11-16T18:10:15.003Z,72.87
2022-11-16T18:13:10.422Z,73.12
2022-11-16T18:15:48.578Z,73.61
2022-11-16T18:18:25.390Z,73.19
2022-11-16T18:20:56.942Z,73.84
2022-11-16T18:23:28.940Z,73.66
2022-11-16T18:26:05.861Z,73.64
2022-11-16T18:28:37.150Z,73.30
2022-11-16T18:31:09.821Z,73.25
2022-11-16T18:33:40.142Z,73.73
2022-11-16T18:36:11.488Z,74.49
2022-11-16T18:38:41.893Z,74.49
2022-11-16T18:41:15.260Z,75.23
2022-11-16T18:44:03.006Z,75.28
2022-11-16T18:46:34.815Z,75.46
2022-11-16T18:49:05.633Z,75.60
2022-11-16T18:51:36.515Z,75.37
2022-11-16T18:54:06.868Z,75.65
2022-11-16T18:56:37.296Z,75.51
2022-11-16T18:59:07.710Z,75.17
2022-11-16T19:01:38.205Z,75.42
2022-11-16T19:04:09.801Z,75.64
2022-11-16T19:06:41.145Z,75.63
2022-11-16T19:09:12.295Z,75.64
2022-11-16T19:11:42.917Z,75.33
2022-11-16T19:14:15.619Z,74.96
2022-11-16T19:16:54.169Z,74.83
2022-11-16T19:19:28.669Z,74.57
2022-11-16T19:21:59.297Z,75.41
2022-11-16T19:24:30.052Z,75.06
2022-11-16T19:27:00.591Z,75.32
2022-11-16T19:29:31.372Z,74.95
2022-11-16T19:32:02.144Z,75.25
2022-11-16T19:34:34.254Z,75.56
2022-11-16T19:37:07.515Z,75.64
2022-11-16T19:39:38.085Z,75.57
2022-11-16T19:42:08.635Z,75.55
2022-11-16T19:44:39.382Z,75.74
2022-11-16T19:47:09.609Z,75.71
2022-11-16T19:49:40.127Z,75.65
2022-11-16T19:52:11.351Z,75.92
2022-11-16T19:54:42.195Z,76.18
2022-11-16T19:57:13.829Z,75.75
2022-11-16T19:59:44.701Z,75.56
2022-11-16T20:02:15.472Z,76.08
2022-11-16T20:04:46.235Z,76.03
2022-11-16T20:07:19.047Z,76.08
2022-11-16T20:09:53.838Z,75.65
2022-11-16T20:12:24.433Z,76.01
2022-11-16T20:14:57.288Z,76.15
2022-11-16T20:17:27.495Z,75.62
2022-11-16T20:20:01.649Z,75.81
2022-11-16T20:22:32.940Z,75.61
2022-11-16T20:25:03.426Z,75.83
2022-11-16T20:27:34.393Z,76.01
2022-11-16T20:30:09.917Z,76.26
2022-11-16T20:32:40.714Z,76.26
2022-11-16T20:35:13.690Z,76.70
2022-11-16T20:37:47.114Z,75.68
2022-11-16T20:40:20.765Z,75.66
2022-11-16T20:42:51.882Z,75.78
2022-11-16T20:45:23.353Z,76.12
2022-11-16T20:47:53.827Z,76.50
2022-11-16T20:50:24.515Z,76.19
2022-11-16T20:52:58.756Z,76.31
2022-11-16T20:55:29.224Z,76.59
2022-11-16T20:57:59.769Z,76.09
2022-11-16T21:00:30.480Z,76.23
2022-11-16T21:03:01.532Z,76.52
2022-11-16T21:05:32.427Z,75.79
2022-11-16T21:08:03.006Z,75.54
2022-11-16T21:10:37.232Z,75.98
2022-11-16T21:13:26.693Z,76.44
2022-11-16T21:16:01.678Z,76.60
2022-11-16T21:18:32.545Z,76.74
2022-11-16T21:21:08.503Z,76.57
2022-11-16T21:23:42.984Z,76.14
2022-11-16T21:26:15.650Z,75.78
2022-11-16T21:28:46.446Z,75.69
2022-11-16T21:31:22.579Z,75.99
2022-11-16T21:33:53.432Z,75.74
2022-11-16T21:36:30.961Z,76.45
2022-11-16T21:39:01.617Z,76.40
2022-11-16T21:41:32.708Z,76.31
2022-11-16T21:44:03.833Z,76.50
2022-11-16T21:46:34.345Z,76.62
2022-11-16T21:49:05.526Z,76.88
2022-11-16T21:51:35.979Z,76.88
2022-11-16T21:54:06.390Z,76.34
2022-11-16T21:56:37.175Z,76.72
2022-11-16T21:59:08.243Z,76.54
2022-11-16T22:01:59.063Z,76.20
2022-11-16T22:04:48.146Z,76.65
2022-11-16T22:07:34.654Z,76.77
2022-11-16T22:10:12.872Z,76.18
2022-11-16T22:12:43.866Z,76.24
2022-11-16T22:15:14.619Z,76.29
2022-11-16T22:17:45.855Z,76.43
2022-11-16T22:20:17.123Z,76.14
2022-11-16T22:22:48.510Z,75.80
2022-11-16T22:25:19.529Z,75.72
2022-11-16T22:28:19.132Z,75.59
2022-11-16T22:30:40.776Z,75.40
2022-11-16T22:33:11.242Z,75.21
2022-11-16T22:35:42.922Z,74.91
2022-11-16T22:38:14.601Z,75.12
2022-11-16T22:40:53.751Z,75.39
2022-11-16T22:43:29.595Z,75.31
2022-11-16T22:46:01.636Z,74.88
2022-11-16T22:48:38.180Z,74.86
2022-11-16T22:51:26.782Z,75.16
2022-11-16T22:54:08.123Z,75.01
2022-11-16T22:56:39.176Z,74.85
2022-11-16T22:59:10.771Z,74.96
2022-11-16T23:01:41.477Z,75.56
2022-11-16T23:04:11.959Z,74.88
2022-11-16T23:06:42.939Z,74.29
2022-11-16T23:09:14.015Z,74.48
2022-11-16T23:12:03.469Z,74.18
2022-11-16T23:14:52.596Z,74.29
2022-11-16T23:17:23.593Z,74.23
2022-11-16T23:20:17.294Z,74.11
2022-11-16T23:23:07.826Z,74.00
2022-11-16T23:25:57.069Z,74.19
2022-11-16T23:28:27.622Z,73.46
2022-11-16T23:30:57.990Z,73.28
2022-11-16T23:33:46.605Z,72.74
2022-11-16T23:36:17.331Z,72.73
2022-11-16T23:38:47.878Z,72.20
2022-11-16T23:41:36.961Z,72.49
2022-11-16T23:44:07.766Z,72.80
2022-11-16T23:46:38.671Z,71.85
2022-11-16T23:49:09.856Z,72.10
2022-11-16T23:51:40.937Z,71.69
2022-11-16T23:54:11.662Z,71.34
2022-11-16T23:56:42.216Z,71.84
2022-11-16T23:59:21.964Z,70.72
